Time;durP1;ratioP1;P1;durP2;ratioP2;P2;SDS_P1;SDS_P2;PMS_P1;PMS_P2;Temp;Humidity;BMP_temperature;BMP_pressure;BME280_temperature;BME280_humidity;BME280_pressure;Samples;Min_cycle;Max_cycle;Signal;HPM_P1;HPM_P2
2023/07/13 04:02:26;;;;;;;5.75;2.75;;;;;;;22.03;100.00;100031.09;6634174;26;20079;-87
2023/07/13 04:05:30;;;;;;;7.25;2.80;;;;;;;22.07;100.00;100033.03;6596211;26;33943;-86
2023/07/13 04:08:35;;;;;;;2.58;2.20;;;;;;;22.18;100.00;100032.06;6633472;26;33957;-87
2023/07/13 04:11:39;;;;;;;4.57;2.67;;;;;;;22.22;100.00;100024.13;6633620;26;33684;-87
2023/07/13 04:14:41;;;;;;;5.40;3.00;;;;;;;22.28;100.00;100046.94;6633666;26;33622;-87
2023/07/13 04:17:44;;;;;;;4.07;2.33;;;;;;;22.32;100.00;100076.31;6596044;26;33802;-87
2023/07/13 04:20:48;;;;;;;3.30;2.53;;;;;;;22.32;100.00;100091.97;6613682;26;33630;-87
2023/07/13 04:23:51;;;;;;;3.40;2.17;;;;;;;22.25;100.00;100105.88;6614037;26;33941;-88
2023/07/13 04:26:53;;;;;;;3.12;2.60;;;;;;;22.28;100.00;100112.75;6613082;26;34660;-87
2023/07/13 04:29:56;;;;;;;3.00;2.20;;;;;;;22.27;100.00;100117.41;6596376;26;33731;-86
2023/07/13 04:32:59;;;;;;;7.43;2.37;;;;;;;22.31;100.00;100104.00;6597645;26;34953;-87
2023/07/13 04:36:02;;;;;;;5.25;2.28;;;;;;;22.33;100.00;100102.66;6595981;26;33622;-86
2023/07/13 04:39:05;;;;;;;3.33;1.95;;;;;;;22.46;100.00;100108.78;6595260;26;33990;-88
2023/07/13 04:42:10;;;;;;;2.60;2.40;;;;;;;22.51;100.00;100112.38;6614153;26;34476;-87
2023/07/13 04:45:14;;;;;;;5.32;2.42;;;;;;;22.46;100.00;100119.75;6595335;26;33519;-87
2023/07/13 04:48:18;;;;;;;3.10;2.20;;;;;;;22.34;100.00;100128.97;6633675;26;33575;-87
2023/07/13 04:51:21;;;;;;;2.92;2.22;;;;;;;22.28;100.00;100135.53;6614154;26;33961;-87
2023/07/13 04:54:24;;;;;;;2.55;2.25;;;;;;;22.22;100.00;100141.22;6595151;26;34070;-87
2023/07/13 04:57:27;;;;;;;4.12;2.60;;;;;;;22.18;100.00;100149.16;6613299;26;33690;-87
2023/07/13 05:00:31;;;;;;;6.32;2.40;;;;;;;22.08;100.00;100163.53;6633332;26;34272;-86
2023/07/13 05:03:35;;;;;;;3.65;2.37;;;;;;;21.68;100.00;100175.75;6586314;27;33593;-86
2023/07/13 05:06:38;;;;;;;3.50;2.45;;;;;;;21.28;100.00;100195.19;6607846;27;33644;-86
2023/07/13 05:09:41;;;;;;;2.92;2.25;;;;;;;20.87;100.00;100215.69;6586190;27;33878;-86
2023/07/13 05:12:44;;;;;;;4.28;2.55;;;;;;;20.56;100.00;100243.38;6568000;27;34146;-85
2023/07/13 05:15:56;;;;;;;3.40;2.58;;;;;;;20.32;100.00;100274.59;6585569;27;33904;-85
2023/07/13 05:18:59;;;;;;;3.70;2.92;;;;;;;20.17;100.00;100311.50;6586257;27;34240;-86
2023/07/13 05:22:03;;;;;;;6.93;3.03;;;;;;;20.00;100.00;100323.44;6604796;26;33488;-84
2023/07/13 05:25:06;;;;;;;8.52;2.53;;;;;;;19.89;100.00;100327.84;6588153;27;33898;-86
2023/07/13 05:28:09;;;;;;;4.78;2.70;;;;;;;19.66;100.00;100324.09;6605660;27;34073;-86
2023/07/13 05:31:12;;;;;;;3.78;2.28;;;;;;;19.30;100.00;100316.94;6585012;27;33859;-86
2023/07/13 05:34:16;;;;;;;6.62;2.53;;;;;;;19.09;100.00;100318.34;6586362;27;33810;-86
2023/07/13 05:37:22;;;;;;;2.42;2.15;;;;;;;18.99;100.00;100334.47;6605011;27;35092;-87
2023/07/13 05:40:24;;;;;;;5.53;2.50;;;;;;;18.97;100.00;100333.88;6568662;27;34300;-87
2023/07/13 05:43:27;;;;;;;2.90;2.03;;;;;;;18.98;100.00;100324.63;6569051;27;34549;-87
2023/07/13 05:46:30;;;;;;;4.40;2.55;;;;;;;19.01;100.00;100307.78;6587834;27;34741;-90
2023/07/13 05:49:33;;;;;;;3.33;2.10;;;;;;;18.96;100.00;100305.75;6607813;27;33843;-91
2023/07/13 05:52:37;;;;;;;5.30;2.30;;;;;;;18.97;100.00;100303.88;6572472;27;34343;-92
2023/07/13 05:55:49;;;;;;;4.10;2.10;;;;;;;18.91;100.00;100315.72;6553386;27;35279;-92
2023/07/13 05:58:52;;;;;;;2.97;1.65;;;;;;;18.78;100.00;100312.13;6608192;27;33849;-89
2023/07/13 06:01:55;;;;;;;2.28;1.85;;;;;;;18.72;100.00;100290.38;6611014;27;33793;-89
2023/07/13 06:04:58;;;;;;;4.15;2.50;;;;;;;18.61;100.00;100286.56;6588652;27;33990;-89
2023/07/13 06:08:01;;;;;;;5.50;2.30;;;;;;;18.55;100.00;100271.13;6611722;27;33884;-88
2023/07/13 06:11:15;;;;;;;2.80;2.05;;;;;;;18.45;100.00;100279.88;6606580;26;34359;-88
2023/07/13 06:14:18;;;;;;;1.85;1.75;;;;;;;18.43;100.00;100262.06;6609114;27;165698;-89
2023/07/13 06:17:20;;;;;;;3.15;2.78;;;;;;;18.43;100.00;100199.38;6588903;27;34558;-88
2023/07/13 06:20:23;;;;;;;3.45;2.10;;;;;;;18.37;100.00;100135.75;6589119;27;35256;-88
2023/07/13 06:23:27;;;;;;;6.00;2.33;;;;;;;18.29;100.00;99908.00;6573534;27;34713;-89
2023/07/13 06:26:29;;;;;;;3.33;2.08;;;;;;;18.20;100.00;99911.34;6574169;27;33948;-89
2023/07/13 06:29:32;;;;;;;3.10;1.92;;;;;;;18.28;100.00;100017.22;6575008;27;33520;-90
2023/07/13 06:32:35;;;;;;;4.35;1.95;;;;;;;18.37;100.00;99969.50;6588520;27;34123;-90
2023/07/13 06:35:43;;;;;;;2.00;1.80;;;;;;;18.32;100.00;99923.03;6572296;27;33848;-90
2023/07/13 06:38:45;;;;;;;1.83;1.70;;;;;;;18.39;100.00;99914.72;6589891;27;34200;-90
2023/07/13 06:41:48;;;;;;;1.77;1.67;;;;;;;18.49;100.00;99943.03;6579648;26;34493;-90
2023/07/13 06:44:52;;;;;;;3.17;2.00;;;;;;;18.64;100.00;99955.34;6617834;26;34915;-91
2023/07/13 06:56:04;;;;;;;2.58;1.77;;;;;;;19.16;100.00;99950.66;6591164;26;20075;-90
2023/07/13 06:59:07;;;;;;;1.75;1.65;;;;;;;19.62;100.00;99934.22;6610440;26;33915;-90
2023/07/13 07:02:11;;;;;;;3.33;2.20;;;;;;;19.85;100.00;99944.19;6605995;26;33763;-89
2023/07/13 07:05:14;;;;;;;1.67;1.58;;;;;;;19.88;100.00;99957.34;6636491;26;34681;-89
2023/07/13 07:08:16;;;;;;;2.22;2.03;;;;;;;20.07;100.00;99947.00;6617173;26;33505;-90
2023/07/13 07:11:23;;;;;;;2.20;1.80;;;;;;;20.35;100.00;99948.75;6593499;26;33921;-89
2023/07/13 07:14:26;;;;;;;2.05;1.73;;;;;;;20.76;100.00;99962.97;6643600;26;34151;-89
2023/07/13 07:17:29;;;;;;;2.28;1.83;;;;;;;21.28;100.00;99987.09;6617805;26;34424;-89
2023/07/13 07:20:32;;;;;;;2.25;2.05;;;;;;;21.62;100.00;100058.16;6577990;26;34066;-89
2023/07/13 07:23:35;;;;;;;5.78;1.80;;;;;;;22.01;100.00;100099.06;6571765;27;34105;-88
2023/07/13 07:30:31;;;;;;;2.08;1.60;;;;;;;22.51;100.00;100104.16;6636316;26;33667;-89
2023/07/13 07:33:37;;;;;;;3.17;1.83;;;;;;;22.59;100.00;100122.88;6585140;26;33812;-89
2023/07/13 07:36:40;;;;;;;1.80;1.50;;;;;;;22.91;100.00;100132.16;6619099;26;34710;-89
2023/07/13 07:39:46;;;;;;;1.80;1.70;;;;;;;22.84;100.00;100143.34;6616011;26;33606;-88
2023/07/13 07:43:12;;;;;;;2.95;2.05;;;;;;;22.60;100.00;100145.66;6634918;26;35515;-90
2023/07/13 07:49:44;;;;;;;2.40;2.03;;;;;;;22.51;100.00;100156.28;6553069;27;34542;-89
2023/07/13 07:52:47;;;;;;;2.28;2.08;;;;;;;22.53;100.00;100162.34;6551661;27;33963;-89
2023/07/13 07:55:51;;;;;;;5.43;2.08;;;;;;;22.44;100.00;100163.09;6551492;27;33952;-89
2023/07/13 07:58:56;;;;;;;2.50;1.85;;;;;;;22.63;100.00;100158.84;6553393;27;33865;-89
2023/07/13 08:02:02;;;;;;;3.05;1.95;;;;;;;22.71;100.00;100158.38;6553596;27;33868;-89
2023/07/13 08:05:09;;;;;;;11.02;2.15;;;;;;;22.89;100.00;100164.53;6575166;26;35319;-89
2023/07/13 08:08:14;;;;;;;3.45;2.08;;;;;;;22.95;100.00;100161.56;6635627;26;34300;-89
2023/07/13 08:11:18;;;;;;;2.85;2.00;;;;;;;23.17;100.00;100164.19;6634192;26;33918;-89
2023/07/13 08:14:23;;;;;;;2.42;2.20;;;;;;;23.25;100.00;100155.44;6635096;26;34334;-89
2023/07/13 08:17:41;;;;;;;7.57;2.28;;;;;;;23.45;100.00;100148.34;6601940;26;33806;-89
2023/07/13 08:20:43;;;;;;;2.33;2.10;;;;;;;23.51;100.00;100147.28;6633907;26;34641;-89
2023/07/13 08:23:46;;;;;;;3.37;1.90;;;;;;;23.56;100.00;100150.06;6563247;26;34363;-89
2023/07/13 08:26:50;;;;;;;3.08;2.10;;;;;;;23.74;100.00;100162.50;6525273;27;34751;-88
2023/07/13 08:29:54;;;;;;;4.37;1.92;;;;;;;23.88;100.00;100168.31;6525063;27;33549;-88
2023/07/13 08:32:57;;;;;;;8.95;2.92;;;;;;;24.20;100.00;100171.69;6526281;27;34830;-88
2023/07/13 08:36:00;;;;;;;5.80;2.17;;;;;;;24.23;100.00;100166.75;6526474;27;33862;-88
2023/07/13 08:39:03;;;;;;;2.83;1.95;;;;;;;24.42;100.00;100159.56;6525546;27;34587;-88
2023/07/13 08:42:31;;;;;;;3.87;2.20;;;;;;;24.67;100.00;100159.59;6525700;27;34105;-88
2023/07/13 08:45:48;;;;;;;2.83;2.10;;;;;;;24.72;100.00;100157.97;6581242;26;34025;-88
2023/07/13 08:49:10;;;;;;;1.95;1.75;;;;;;;24.97;100.00;100155.16;6608531;26;35296;-88
2023/07/13 08:52:29;;;;;;;5.22;2.62;;;;;;;25.18;99.89;100166.97;6607413;26;33670;-88
2023/07/13 08:55:37;;;;;;;5.03;2.33;;;;;;;25.08;100.00;100169.72;6580926;27;34586;-88
2023/07/13 08:58:41;;;;;;;3.15;2.25;;;;;;;25.18;100.00;100174.41;6580343;27;33557;-89
2023/07/13 09:02:03;;;;;;;2.42;2.05;;;;;;;25.53;98.37;100170.69;6589718;26;33839;-88
2023/07/13 09:05:20;;;;;;;2.45;2.15;;;;;;;25.75;100.00;100168.41;6630167;26;34002;-88
2023/07/13 09:08:39;;;;;;;3.23;2.20;;;;;;;25.73;96.08;100161.50;6646433;26;35094;-89
2023/07/13 09:12:09;;;;;;;2.50;2.28;;;;;;;25.60;95.60;100162.16;6641025;26;35086;-88
2023/07/13 09:15:34;;;;;;;2.85;2.00;;;;;;;25.47;97.54;100166.31;6636664;26;33634;-88
2023/07/13 09:19:13;;;;;;;4.03;2.05;;;;;;;25.28;98.52;100163.38;6632786;26;34152;-89
2023/07/13 09:26:14;;;;;;;4.15;2.42;;;;;;;25.54;98.30;100164.91;6639412;26;34395;-89
2023/07/13 09:29:29;;;;;;;2.17;1.95;;;;;;;25.82;95.88;100170.88;6629745;26;33536;-88
2023/07/13 09:32:33;;;;;;;2.60;1.92;;;;;;;26.32;93.71;100168.06;6623318;26;34363;-88
2023/07/13 09:36:14;;;;;;;2.25;2.05;;;;;;;26.17;91.87;100166.22;6624619;26;35138;-88
2023/07/13 09:39:38;;;;;;;2.87;2.20;;;;;;;26.23;91.70;100185.22;6616269;26;33478;-88
2023/07/13 09:42:45;;;;;;;2.60;2.40;;;;;;;26.12;92.93;100180.91;6633457;26;35515;-89
2023/07/13 09:46:21;;;;;;;3.20;2.37;;;;;;;25.96;90.93;100177.41;6545829;27;20022;-88
2023/07/13 09:49:36;;;;;;;3.15;2.70;;;;;;;25.93;93.58;100185.44;6553377;27;33771;-88
2023/07/13 09:52:47;;;;;;;3.65;2.45;;;;;;;26.05;91.47;100190.59;6553006;27;33722;-88
2023/07/13 09:55:50;;;;;;;4.53;2.50;;;;;;;26.09;91.86;100197.19;6577030;26;33991;-88
2023/07/13 09:58:57;;;;;;;5.55;2.50;;;;;;;26.40;91.76;100195.06;6615620;26;34984;-88
2023/07/13 10:02:00;;;;;;;2.92;2.40;;;;;;;26.30;90.36;100189.63;6635019;26;34404;-88
2023/07/13 10:08:57;;;;;;;2.78;2.53;;;;;;;26.67;88.56;100184.34;6628873;26;32727;-88
2023/07/13 10:12:01;;;;;;;3.22;2.28;;;;;;;27.09;85.15;100179.28;6629115;26;33838;-88
2023/07/13 10:15:13;;;;;;;5.43;2.37;;;;;;;27.36;84.14;100178.72;6629404;26;34587;-88
2023/07/13 10:18:28;;;;;;;3.55;2.53;;;;;;;27.51;81.71;100184.06;6629000;26;33803;-88
2023/07/13 10:21:39;;;;;;;4.43;2.45;;;;;;;27.68;81.96;100178.03;6633181;26;35397;-88
2023/07/13 10:24:43;;;;;;;2.40;2.20;;;;;;;27.94;80.09;100181.31;6632517;26;33629;-88
2023/07/13 10:27:49;;;;;;;3.10;2.47;;;;;;;28.02;79.18;100177.88;6637270;26;34004;-88
2023/07/13 10:30:53;;;;;;;4.65;2.35;;;;;;;28.27;80.33;100173.88;6634852;26;34374;-88
2023/07/13 10:33:56;;;;;;;2.67;2.47;;;;;;;28.48;80.15;100185.47;6635157;26;33867;-88
2023/07/13 10:37:01;;;;;;;2.15;2.05;;;;;;;28.83;77.00;100193.47;6616205;26;33828;-88
2023/07/13 10:40:06;;;;;;;4.10;2.30;;;;;;;29.21;73.19;100188.66;6635749;26;34181;-89
2023/07/13 10:43:38;;;;;;;3.28;1.77;;;;;;;29.31;71.44;100188.47;6619768;26;33818;-88
2023/07/13 10:46:43;;;;;;;3.45;2.15;;;;;;;29.18;69.96;100182.91;6634239;26;34298;-88
2023/07/13 10:49:50;;;;;;;3.78;1.98;;;;;;;29.55;68.26;100188.25;6639414;26;34003;-88
2023/07/13 10:53:03;;;;;;;6.40;2.60;;;;;;;30.15;68.83;100183.63;6640769;26;34129;-88
2023/07/13 10:56:29;;;;;;;2.30;2.10;;;;;;;30.29;65.86;100195.53;6639741;26;34408;-88
2023/07/13 10:59:35;;;;;;;3.42;2.00;;;;;;;30.18;66.15;100196.87;6633994;26;33792;-89
2023/07/13 11:02:38;;;;;;;2.00;1.73;;;;;;;30.59;66.70;100187.56;6635756;26;34029;-89
2023/07/13 11:05:41;;;;;;;2.70;1.75;;;;;;;30.84;61.60;100186.94;6637328;26;33776;-89
2023/07/13 11:08:47;;;;;;;2.97;1.92;;;;;;;30.75;60.59;100182.47;6633924;26;33477;-88
2023/07/13 11:11:49;;;;;;;2.30;1.62;;;;;;;31.15;62.47;100172.22;6630642;26;33988;-88
2023/07/13 11:14:57;;;;;;;2.92;2.05;;;;;;;31.96;55.37;100160.69;6633743;26;33784;-88
2023/07/13 11:18:04;;;;;;;1.55;1.45;;;;;;;32.49;57.00;100175.44;6634949;26;33745;-88
2023/07/13 11:21:18;;;;;;;2.50;1.83;;;;;;;32.69;52.87;100169.16;6615457;26;34766;-88
2023/07/13 11:24:49;;;;;;;2.93;1.70;;;;;;;32.81;51.76;100184.41;6632133;26;33815;31
2023/07/13 11:28:03;;;;;;;3.47;1.60;;;;;;;33.28;49.05;100174.06;6596968;27;36153;-89
2023/07/13 11:31:15;;;;;;;3.90;1.65;;;;;;;33.70;47.64;100174.22;6580145;27;33901;-88
2023/07/13 11:34:26;;;;;;;4.07;1.62;;;;;;;33.88;45.86;100169.31;6580428;27;34703;-88
2023/07/13 11:37:30;;;;;;;2.95;1.77;;;;;;;34.80;44.66;100161.94;6582201;27;33724;-89
2023/07/13 11:40:33;;;;;;;2.87;1.70;;;;;;;34.89;43.90;100159.88;6580689;27;34510;-88
2023/07/13 11:43:36;;;;;;;1.65;1.30;;;;;;;36.80;41.29;100153.34;6580058;27;33650;-88
2023/07/13 11:46:44;;;;;;;3.45;1.48;;;;;;;36.84;38.95;100154.25;6581078;27;34122;-89
2023/07/13 11:49:53;;;;;;;1.80;1.35;;;;;;;37.41;36.71;100162.16;6578864;27;33850;-88
2023/07/13 11:52:59;;;;;;;1.65;1.48;;;;;;;37.00;35.66;100157.91;6579799;27;33599;-88
